Asheville, North Carolina
Current Conditions -  °F | °C
As of 7:15 AM on Monday 20 Oct 2014 (Local Time) from KAVL Reporting Station
Haze Haze  
Wind Chill:   Ceiling: Unl
Heat Index:   Visibility: 4mi
Dew Point:   Wind: 3mph
Humidity: 96%   Direction: 160°SSE
Pressure: 30.13"   Gusts: NA
Location:  35.6°N, 82.55°W
Report Text: KAVL 201115Z 16003KT 4SM BR SCT001 04/03 A3013 RMK AO2 T00390033
Loading
Personal Weather Stations






























Interactive Weather Map New forecast layout! Learn more

10-Day Weather Forecast

Advertisements
Track Severe Weather on mobile